Time;durP1;ratioP1;P1;durP2;ratioP2;P2;SDS_P1;SDS_P2;PMS_P1;PMS_P2;Temp;Humidity;BMP_temperature;BMP_pressure;BME280_temperature;BME280_humidity;BME280_pressure;Samples;Min_cycle;Max_cycle;Signal;HPM_P1;HPM_P2
2021/09/04 00:02:13;;;;;;;7.80;7.10;;;24.30;60.60;;;;;;5106345;28;20649;-70
2021/09/04 00:04:42;;;;;;;8.37;7.57;;;24.30;60.70;;;;;;5095436;28;20796;-69
2021/09/04 00:07:17;;;;;;;7.97;7.27;;;24.30;60.60;;;;;;5104204;27;20270;-69
2021/09/04 00:09:47;;;;;;;8.73;7.93;;;24.30;60.50;;;;;;5098099;28;20199;-69
2021/09/04 00:12:16;;;;;;;8.20;7.40;;;24.30;60.60;;;;;;5106692;28;20200;-68
2021/09/04 00:14:49;;;;;;;8.90;8.00;;;24.30;60.50;;;;;;5093899;28;20212;-68
2021/09/04 00:17:19;;;;;;;8.30;7.60;;;24.30;60.50;;;;;;5106864;28;20548;-68
2021/09/04 00:19:51;;;;;;;8.87;8.03;;;24.30;60.50;;;;;;5100020;28;20204;-68
2021/09/04 00:22:26;;;;;;;8.57;7.73;;;24.20;60.40;;;;;;5108363;28;20208;-69
2021/09/04 00:24:58;;;;;;;9.93;8.93;;;24.20;60.50;;;;;;5111828;28;20231;-69
2021/09/04 00:27:30;;;;;;;8.97;8.17;;;24.20;60.50;;;;;;5102657;28;20196;-69
2021/09/04 00:30:04;;;;;;;8.80;8.00;;;24.20;60.40;;;;;;5099699;28;20184;-69
2021/09/04 00:32:34;;;;;;;9.23;8.23;;;24.20;60.40;;;;;;5114224;28;20200;-68
2021/09/04 00:35:05;;;;;;;9.60;8.60;;;24.20;60.30;;;;;;5112896;28;20245;-68
2021/09/04 00:37:37;;;;;;;8.57;7.87;;;24.20;60.40;;;;;;5084086;28;20211;-68
2021/09/04 00:40:10;;;;;;;8.50;7.70;;;24.20;60.40;;;;;;5090206;28;20242;-68
2021/09/04 00:42:40;;;;;;;9.20;8.30;;;24.20;60.30;;;;;;5109537;28;20244;-68
2021/09/04 00:45:12;;;;;;;9.33;8.43;;;24.10;60.30;;;;;;5083216;28;20197;-69
2021/09/04 00:48:00;;;;;;;9.40;8.50;;;24.10;60.20;;;;;;5068606;28;20200;-69
2021/09/04 00:50:45;;;;;;;9.83;8.63;;;24.10;60.20;;;;;;5088479;28;20193;-69
2021/09/04 00:53:15;;;;;;;9.37;8.47;;;24.10;60.20;;;;;;5083973;28;20201;-69
2021/09/04 00:55:46;;;;;;;9.57;8.67;;;24.20;60.40;;;;;;5075586;28;20235;-69
2021/09/04 00:58:18;;;;;;;10.07;9.07;;;24.10;60.30;;;;;;5087286;28;20641;-69
2021/09/04 01:00:54;;;;;;;9.40;8.37;;;24.10;60.40;;;;;;5079089;28;20650;-69
2021/09/04 01:03:24;;;;;;;9.17;8.37;;;24.10;60.40;;;;;;5061641;28;20623;-69
2021/09/04 01:05:54;;;;;;;10.83;9.00;;;24.10;60.40;;;;;;5075904;28;20626;-69
2021/09/04 01:08:25;;;;;;;9.10;8.30;;;24.10;60.30;;;;;;5078551;28;20250;-69
2021/09/04 01:10:56;;;;;;;10.70;9.70;;;24.10;60.30;;;;;;5080583;28;20220;-69
2021/09/04 01:13:26;;;;;;;9.27;8.37;;;24.10;60.30;;;;;;5092092;28;20205;-69
2021/09/04 01:15:55;;;;;;;9.97;8.97;;;24.10;60.20;;;;;;5098815;28;20188;-69
2021/09/04 01:18:24;;;;;;;9.50;8.40;;;24.00;60.20;;;;;;5090621;28;20621;-69
2021/09/04 01:20:54;;;;;;;10.00;9.00;;;24.10;60.20;;;;;;5087018;28;20208;-69
2021/09/04 01:23:45;;;;;;;9.37;8.47;;;24.00;60.20;;;;;;5078453;28;20204;-69
2021/09/04 01:26:14;;;;;;;9.60;8.70;;;24.00;60.20;;;;;;5076075;28;20188;-69
2021/09/04 01:28:42;;;;;;;9.77;8.77;;;24.00;60.20;;;;;;5092723;28;20192;-69
2021/09/04 01:31:14;;;;;;;9.83;8.93;;;24.00;60.20;;;;;;5057531;28;20215;-69
2021/09/04 01:33:47;;;;;;;9.80;8.80;;;24.00;60.20;;;;;;5079670;28;20743;-69
2021/09/04 01:36:39;;;;;;;10.03;9.13;;;24.00;60.10;;;;;;5072513;28;20211;-69
2021/09/04 01:39:09;;;;;;;9.00;8.10;;;24.00;60.20;;;;;;5057548;28;20262;-69
2021/09/04 01:41:41;;;;;;;9.73;8.83;;;24.00;60.10;;;;;;5096199;28;20850;-70
2021/09/04 01:44:12;;;;;;;10.43;9.33;;;24.00;60.10;;;;;;5108143;28;20200;-70
2021/09/04 01:46:42;;;;;;;9.50;8.67;;;24.00;60.10;;;;;;5107813;28;20199;-69
2021/09/04 01:49:10;;;;;;;10.00;9.10;;;24.00;60.10;;;;;;5102064;28;20809;-69
2021/09/04 01:51:43;;;;;;;9.73;8.80;;;24.00;60.10;;;;;;5109631;28;20208;-69
2021/09/04 01:54:14;;;;;;;11.50;10.33;;;23.90;60.10;;;;;;5110479;28;20239;-69
2021/09/04 01:56:46;;;;;;;9.47;8.67;;;23.90;60.10;;;;;;5109176;28;20177;-69
2021/09/04 01:59:23;;;;;;;9.70;8.87;;;23.90;60.10;;;;;;5112152;28;20229;-69
2021/09/04 02:01:55;;;;;;;9.40;8.50;;;23.90;60.00;;;;;;5097857;28;20204;-69
2021/09/04 02:04:27;;;;;;;9.80;8.80;;;23.90;60.00;;;;;;5101422;28;20216;-69
2021/09/04 02:06:58;;;;;;;10.50;9.60;;;23.90;60.00;;;;;;5112315;28;20204;-69
2021/09/04 02:09:30;;;;;;;10.07;8.50;;;23.90;59.90;;;;;;5109887;28;20219;-69
2021/09/04 02:12:01;;;;;;;9.97;9.07;;;23.90;59.90;;;;;;5109577;28;20205;-69
2021/09/04 02:14:32;;;;;;;10.00;9.10;;;23.90;59.90;;;;;;5110194;28;20223;-69
2021/09/04 02:17:18;;;;;;;10.50;9.50;;;23.90;59.90;;;;;;5110935;28;20192;-69
2021/09/04 02:19:49;;;;;;;10.63;9.63;;;23.90;59.90;;;;;;5067923;28;20232;-69
2021/09/04 02:22:25;;;;;;;10.50;8.80;;;23.90;59.90;;;;;;5113702;27;20205;-69
2021/09/04 02:24:54;;;;;;;10.27;9.27;;;23.90;59.80;;;;;;5107324;28;20221;-69
2021/09/04 02:27:25;;;;;;;10.83;9.80;;;23.90;59.80;;;;;;5103468;28;20469;-69
2021/09/04 02:29:59;;;;;;;9.43;8.53;;;23.90;59.80;;;;;;5107724;28;20204;-69
2021/09/04 02:32:28;;;;;;;10.40;9.40;;;23.90;59.80;;;;;;5085622;28;20307;-69
2021/09/04 02:35:02;;;;;;;9.77;8.87;;;23.90;59.80;;;;;;5094781;28;20642;-69
2021/09/04 02:37:32;;;;;;;10.07;9.10;;;23.80;59.70;;;;;;5080115;28;20530;-68
2021/09/04 02:40:07;;;;;;;10.30;9.20;;;23.90;59.80;;;;;;5110515;28;20204;-68
2021/09/04 02:42:39;;;;;;;9.50;8.60;;;23.80;59.70;;;;;;5107251;28;20637;-68
2021/09/04 02:45:13;;;;;;;10.70;9.67;;;23.80;59.70;;;;;;5079359;28;20231;-68
2021/09/04 02:47:44;;;;;;;10.23;9.23;;;23.80;59.70;;;;;;5107007;28;20618;-68
2021/09/04 02:50:15;;;;;;;9.87;8.97;;;23.80;59.70;;;;;;5097256;28;20212;-68
2021/09/04 02:52:46;;;;;;;10.27;9.30;;;23.80;59.70;;;;;;5102216;28;20293;-68
2021/09/04 02:55:17;;;;;;;10.87;9.77;;;23.80;59.70;;;;;;5081441;28;20676;-68
2021/09/04 02:57:48;;;;;;;10.77;9.70;;;23.80;59.70;;;;;;5105050;28;20201;-68
2021/09/04 03:00:21;;;;;;;9.50;8.60;;;23.80;59.70;;;;;;5100545;28;20200;-69
2021/09/04 03:02:50;;;;;;;10.53;9.53;;;23.80;59.70;;;;;;5098248;28;20208;-68
2021/09/04 03:05:22;;;;;;;10.10;9.10;;;23.80;60.30;;;;;;5101967;28;20209;-68
2021/09/04 03:07:50;;;;;;;9.83;8.83;;;23.80;59.60;;;;;;5095989;28;20197;-68
2021/09/04 03:10:20;;;;;;;10.77;9.77;;;23.80;59.60;;;;;;5104136;28;20229;-68
2021/09/04 03:12:47;;;;;;;10.20;9.10;;;23.80;59.60;;;;;;5083063;28;20201;-68
2021/09/04 03:15:19;;;;;;;10.27;9.27;;;23.80;59.60;;;;;;5090643;28;20200;-68
2021/09/04 03:18:01;;;;;;;10.97;9.63;;;23.80;59.50;;;;;;5093183;28;20283;-69
2021/09/04 03:20:31;;;;;;;10.00;9.10;;;23.80;59.60;;;;;;5105761;28;20200;-68
2021/09/04 03:23:00;;;;;;;9.40;8.50;;;23.80;59.60;;;;;;5095085;28;20657;-68
2021/09/04 03:25:29;;;;;;;10.00;9.00;;;23.80;59.50;;;;;;5084740;28;20193;-68
2021/09/04 03:27:58;;;;;;;9.37;8.53;;;23.80;59.50;;;;;;5109849;28;20304;-68
2021/09/04 03:30:27;;;;;;;10.07;9.00;;;23.70;59.50;;;;;;5090315;28;20213;-68
2021/09/04 03:33:00;;;;;;;9.60;8.63;;;23.70;59.50;;;;;;5109688;28;20605;-68
2021/09/04 03:35:30;;;;;;;10.10;9.10;;;23.70;59.50;;;;;;5107847;28;20229;-68
2021/09/04 03:38:00;;;;;;;9.63;8.53;;;23.80;59.50;;;;;;5086306;28;20201;-68
2021/09/04 03:40:30;;;;;;;9.57;8.67;;;23.80;59.50;;;;;;5109056;27;20702;-68
2021/09/04 03:42:59;;;;;;;10.13;9.23;;;23.70;59.50;;;;;;5108449;27;20228;-68
2021/09/04 03:45:40;;;;;;;10.00;9.00;;;23.70;59.40;;;;;;5105103;28;20276;-68
2021/09/04 03:48:09;;;;;;;9.63;8.60;;;23.70;59.50;;;;;;5108147;28;20192;-68
2021/09/04 03:50:42;;;;;;;9.50;8.60;;;23.70;59.40;;;;;;5077193;28;20188;-68
2021/09/04 03:53:12;;;;;;;8.80;8.00;;;23.70;59.40;;;;;;5104697;28;20677;-68
2021/09/04 03:55:44;;;;;;;9.50;8.60;;;23.70;59.50;;;;;;5110044;28;20204;-68
2021/09/04 03:58:14;;;;;;;9.27;8.37;;;23.70;59.50;;;;;;5106290;28;20203;-68
2021/09/04 04:00:57;;;;;;;9.30;8.40;;;23.70;59.50;;;;;;5109541;28;20294;-68
2021/09/04 04:03:30;;;;;;;11.67;8.97;;;23.70;59.50;;;;;;5107307;27;20239;-68
2021/09/04 04:05:59;;;;;;;9.97;9.00;;;23.70;59.40;;;;;;5107142;28;20225;-68
2021/09/04 04:08:29;;;;;;;10.33;9.23;;;23.70;59.40;;;;;;5098417;28;20281;-68
2021/09/04 04:11:06;;;;;;;10.23;9.23;;;23.70;59.40;;;;;;5100174;28;20704;-68
2021/09/04 04:13:37;;;;;;;9.83;8.87;;;23.70;59.40;;;;;;5086680;28;20208;-69
2021/09/04 04:16:08;;;;;;;10.20;9.20;;;23.70;59.40;;;;;;5105838;28;20196;-68
2021/09/04 04:18:39;;;;;;;10.03;9.07;;;23.60;59.30;;;;;;5089345;28;20204;-68
2021/09/04 04:21:10;;;;;;;11.07;8.90;;;23.70;59.40;;;;;;5106076;28;20200;-68
2021/09/04 04:23:43;;;;;;;10.37;9.37;;;23.70;59.50;;;;;;5091813;28;20627;-68
2021/09/04 04:26:12;;;;;;;9.90;9.00;;;23.70;59.50;;;;;;5110087;27;20641;-68
2021/09/04 04:28:40;;;;;;;10.30;9.30;;;23.60;59.40;;;;;;5082892;28;20212;-68
2021/09/04 04:31:10;;;;;;;10.07;9.17;;;23.60;59.40;;;;;;5107890;28;20639;-68
2021/09/04 04:33:40;;;;;;;10.07;9.07;;;23.70;59.40;;;;;;5114270;28;20636;-68
2021/09/04 04:36:10;;;;;;;10.27;9.27;;;23.60;59.40;;;;;;5084068;28;20197;-68
2021/09/04 04:38:42;;;;;;;10.57;9.57;;;23.60;59.40;;;;;;5108164;28;20245;-68
2021/09/04 04:41:12;;;;;;;9.97;9.03;;;23.60;59.40;;;;;;5101841;28;20191;-68
2021/09/04 04:43:43;;;;;;;10.47;9.47;;;23.60;59.40;;;;;;5089641;28;20224;-68
2021/09/04 04:46:12;;;;;;;10.43;9.43;;;23.60;59.40;;;;;;5096199;28;20265;-68
2021/09/04 04:48:43;;;;;;;10.83;9.73;;;23.60;59.40;;;;;;5089104;28;20196;-68
2021/09/04 04:51:11;;;;;;;10.77;9.73;;;23.60;59.40;;;;;;5085348;28;20219;-68
2021/09/04 04:53:43;;;;;;;10.97;9.87;;;23.60;59.30;;;;;;5096439;28;20539;-68
2021/09/04 04:56:15;;;;;;;10.13;9.13;;;23.60;59.30;;;;;;5099786;28;20205;-68
2021/09/04 04:58:45;;;;;;;10.63;9.63;;;23.60;59.30;;;;;;5089653;28;20208;-68
2021/09/04 05:01:16;;;;;;;12.43;9.60;;;23.60;59.30;;;;;;5094192;28;20201;-68
2021/09/04 05:03:48;;;;;;;10.00;9.10;;;23.60;59.30;;;;;;5096254;28;20221;-69
2021/09/04 05:06:16;;;;;;;10.23;9.23;;;23.60;59.30;;;;;;5109072;28;20207;-69
2021/09/04 05:08:45;;;;;;;11.67;10.47;;;23.50;59.20;;;;;;5091593;28;20207;-68
2021/09/04 05:11:16;;;;;;;10.87;9.87;;;23.60;59.30;;;;;;5073926;28;20220;-68
2021/09/04 05:13:48;;;;;;;11.47;10.27;;;23.50;59.20;;;;;;5090133;27;20233;-68
2021/09/04 05:16:19;;;;;;;10.63;9.63;;;23.60;59.20;;;;;;5060310;28;20205;-69
2021/09/04 05:18:53;;;;;;;11.37;10.27;;;23.60;59.20;;;;;;5094186;28;20288;-69
2021/09/04 05:21:21;;;;;;;11.03;9.93;;;23.60;59.30;;;;;;5069369;28;20201;-69
2021/09/04 05:23:50;;;;;;;11.50;10.40;;;23.60;59.40;;;;;;5078829;28;20223;-69
2021/09/04 05:26:21;;;;;;;11.50;10.40;;;23.50;59.80;;;;;;5092834;28;20197;-69
2021/09/04 05:28:51;;;;;;;11.80;10.50;;;23.50;59.90;;;;;;5042763;28;20196;-69
2021/09/04 05:31:18;;;;;;;14.90;10.37;;;23.60;60.00;;;;;;5102269;27;20205;-69
2021/09/04 05:33:46;;;;;;;12.63;11.33;;;23.60;60.00;;;;;;5093712;28;20610;-69
2021/09/04 05:36:14;;;;;;;11.40;10.20;;;23.50;59.90;;;;;;5093982;28;20271;-69
2021/09/04 05:38:45;;;;;;;12.43;11.13;;;23.60;59.90;;;;;;5092108;28;20193;-68
2021/09/04 05:41:16;;;;;;;13.33;10.07;;;23.50;59.80;;;;;;5094654;28;20204;-69
2021/09/04 05:43:46;;;;;;;11.17;10.07;;;23.50;59.70;;;;;;5082547;28;20220;-69
2021/09/04 05:46:28;;;;;;;11.73;10.63;;;23.60;59.80;;;;;;5110569;28;20245;-68
2021/09/04 05:49:02;;;;;;;11.03;9.90;;;23.50;59.70;;;;;;5112532;28;20694;-68
2021/09/04 05:51:31;;;;;;;11.47;10.27;;;23.50;59.80;;;;;;5092100;28;20226;-68
2021/09/04 05:53:59;;;;;;;10.60;9.70;;;23.50;59.80;;;;;;5094112;28;20204;-69
2021/09/04 05:56:31;;;;;;;11.00;9.90;;;23.50;59.80;;;;;;5105878;28;20905;-69
2021/09/04 05:59:01;;;;;;;10.73;9.73;;;23.50;59.80;;;;;;5106400;28;20216;-68
2021/09/04 06:01:32;;;;;;;11.50;10.33;;;23.60;59.80;;;;;;5110839;28;20281;-68
2021/09/04 06:04:04;;;;;;;11.13;9.93;;;23.50;59.70;;;;;;5107179;28;20699;-68
2021/09/04 06:06:37;;;;;;;10.93;9.73;;;23.50;59.70;;;;;;5108888;28;20196;-68
2021/09/04 06:09:06;;;;;;;10.77;9.33;;;23.50;59.70;;;;;;5108216;28;20223;-68
2021/09/04 06:11:39;;;;;;;10.97;9.73;;;23.50;59.70;;;;;;5109528;28;20558;-69
2021/09/04 06:14:07;;;;;;;11.03;9.93;;;23.50;59.60;;;;;;5088849;28;20208;-69
2021/09/04 06:16:36;;;;;;;12.57;9.90;;;23.50;59.60;;;;;;5106260;28;20490;-69
2021/09/04 06:19:08;;;;;;;11.47;10.27;;;23.50;59.60;;;;;;5099368;28;20513;-69
2021/09/04 06:21:40;;;;;;;10.87;9.77;;;23.50;59.60;;;;;;5083717;28;20208;-69
2021/09/04 06:24:11;;;;;;;10.90;9.80;;;23.50;59.50;;;;;;5102761;28;20238;-69
2021/09/04 06:26:41;;;;;;;11.03;9.93;;;23.50;59.50;;;;;;5085534;28;20197;-68
2021/09/04 06:29:12;;;;;;;10.97;9.97;;;23.50;59.40;;;;;;5105431;28;20637;-68
2021/09/04 06:31:41;;;;;;;11.03;9.93;;;23.40;59.30;;;;;;5103530;28;20196;-68
2021/09/04 06:34:10;;;;;;;10.83;9.83;;;23.50;59.40;;;;;;5084025;28;20201;-68
2021/09/04 06:36:37;;;;;;;11.53;10.43;;;23.50;59.30;;;;;;5105124;28;20541;-68
2021/09/04 06:39:09;;;;;;;11.80;10.60;;;23.50;59.30;;;;;;5106761;28;20295;-69
2021/09/04 06:41:40;;;;;;;34.17;13.10;;;23.40;59.20;;;;;;5106540;28;20236;-69
2021/09/04 06:44:16;;;;;;;33.77;14.10;;;23.50;60.40;;;;;;5072623;28;20599;-69
2021/09/04 06:46:44;;;;;;;36.37;15.70;;;23.50;60.50;;;;;;5105801;28;20208;-69
2021/09/04 06:49:16;;;;;;;41.00;16.27;;;23.50;60.60;;;;;;5103454;27;20517;-68
2021/09/04 06:51:46;;;;;;;37.30;15.87;;;23.50;60.80;;;;;;5091366;28;20208;-69
2021/09/04 06:54:15;;;;;;;35.10;14.63;;;23.50;60.90;;;;;;5100511;28;20193;-69
2021/09/04 06:56:45;;;;;;;35.07;15.40;;;23.50;60.90;;;;;;5105697;28;20214;-69
2021/09/04 06:59:15;;;;;;;36.23;15.53;;;23.50;60.90;;;;;;5106620;27;20548;-69
2021/09/04 07:01:42;;;;;;;31.43;14.03;;;23.50;60.80;;;;;;5109400;27;20192;-69
2021/09/04 07:04:13;;;;;;;26.50;14.23;;;23.50;60.80;;;;;;5089350;28;20269;-68
2021/09/04 07:06:44;;;;;;;25.17;13.50;;;23.50;60.70;;;;;;5105436;27;20203;-69
2021/09/04 07:09:14;;;;;;;26.97;13.17;;;23.50;60.70;;;;;;5087688;28;20216;-68
2021/09/04 07:11:44;;;;;;;25.57;13.13;;;23.50;60.70;;;;;;5111438;27;20216;-68
2021/09/04 07:14:13;;;;;;;24.87;12.63;;;23.50;60.60;;;;;;5075615;28;20257;-68
2021/09/04 07:16:45;;;;;;;19.30;11.77;;;23.50;60.60;;;;;;5106131;28;20219;-69
2021/09/04 07:19:13;;;;;;;20.33;12.37;;;23.50;60.60;;;;;;5105375;27;20231;-69
2021/09/04 07:21:45;;;;;;;20.87;12.07;;;23.40;60.50;;;;;;5082064;28;20193;-69
2021/09/04 07:24:17;;;;;;;19.67;12.07;;;23.40;60.40;;;;;;5104022;27;20687;-69
2021/09/04 07:26:46;;;;;;;15.73;11.10;;;23.50;60.50;;;;;;5107037;28;20617;-69
2021/09/04 07:29:18;;;;;;;19.27;11.60;;;23.50;60.40;;;;;;5104866;28;20220;-69
2021/09/04 07:31:48;;;;;;;17.30;10.80;;;23.50;60.40;;;;;;5084859;27;20203;-69
2021/09/04 07:34:18;;;;;;;16.27;11.13;;;23.50;60.40;;;;;;5092141;27;20288;-69
2021/09/04 07:36:46;;;;;;;16.10;11.27;;;23.50;60.30;;;;;;5076331;28;20188;-69
2021/09/04 07:39:15;;;;;;;12.67;10.80;;;23.40;60.20;;;;;;5107395;27;20213;-69
2021/09/04 07:41:48;;;;;;;14.90;10.10;;;23.50;60.20;;;;;;5100450;28;20263;-69
2021/09/04 07:44:28;;;;;;;13.03;10.47;;;23.50;60.20;;;;;;5083488;28;20223;-68
2021/09/04 07:47:04;;;;;;;11.73;9.70;;;23.50;60.10;;;;;;5073332;28;20208;-67
2021/09/04 07:49:32;;;;;;;11.87;10.20;;;23.50;60.20;;;;;;5076467;28;20197;-67
2021/09/04 07:52:05;;;;;;;13.50;10.93;;;23.40;60.20;;;;;;5086372;28;20213;-68
2021/09/04 07:54:36;;;;;;;12.23;9.70;;;23.40;60.40;;;;;;5090432;28;20192;-68
2021/09/04 07:57:06;;;;;;;15.13;10.53;;;23.40;60.30;;;;;;5086119;28;20219;-67
2021/09/04 07:59:37;;;;;;;12.43;10.07;;;23.40;60.50;;;;;;5069735;28;20285;-67
2021/09/04 08:02:06;;;;;;;12.13;9.80;;;23.50;60.50;;;;;;5086206;28;20196;-69
2021/09/04 08:04:43;;;;;;;12.97;10.43;;;23.40;60.30;;;;;;5089537;28;20209;-69
2021/09/04 08:07:12;;;;;;;11.67;10.53;;;23.40;60.30;;;;;;5087183;28;21412;-69
2021/09/04 08:09:45;;;;;;;10.97;9.80;;;23.40;60.20;;;;;;5082503;28;20209;-69
2021/09/04 08:12:17;;;;;;;11.20;10.10;;;23.40;60.10;;;;;;5057540;28;20185;-69
2021/09/04 08:14:49;;;;;;;11.70;10.17;;;23.40;60.00;;;;;;5088751;28;20224;-69
2021/09/04 08:17:18;;;;;;;14.57;10.00;;;23.40;60.00;;;;;;5088128;28;20254;-69
2021/09/04 08:19:50;;;;;;;11.23;9.83;;;23.40;59.90;;;;;;5070879;28;20212;-69
2021/09/04 08:22:21;;;;;;;10.03;9.10;;;23.40;59.90;;;;;;5086267;28;20205;-69
2021/09/04 08:24:50;;;;;;;11.13;10.00;;;23.40;59.80;;;;;;5085864;28;20225;-69
2021/09/04 08:27:21;;;;;;;12.50;9.57;;;23.40;59.70;;;;;;5070452;28;20773;-69
2021/09/04 08:29:52;;;;;;;13.37;10.30;;;23.40;59.70;;;;;;5086043;28;20620;-69
2021/09/04 08:32:21;;;;;;;10.57;9.47;;;23.40;59.60;;;;;;5085100;28;20200;-68
2021/09/04 08:34:56;;;;;;;11.17;9.80;;;23.40;59.60;;;;;;5067612;28;20662;-68
2021/09/04 08:37:27;;;;;;;10.03;9.03;;;23.40;59.60;;;;;;5062604;28;20211;-68
2021/09/04 08:39:59;;;;;;;11.07;9.90;;;23.40;59.50;;;;;;5068288;28;20207;-68
2021/09/04 08:42:33;;;;;;;11.03;9.93;;;23.40;59.50;;;;;;5083734;28;20232;-68
2021/09/04 08:45:04;;;;;;;9.90;8.93;;;23.40;59.50;;;;;;5085599;28;20225;-68
2021/09/04 08:47:40;;;;;;;10.17;9.17;;;23.40;59.50;;;;;;5102103;28;20199;-68
2021/09/04 08:50:11;;;;;;;9.80;8.80;;;23.40;59.40;;;;;;5063408;28;20541;-68
2021/09/04 08:52:41;;;;;;;10.30;9.30;;;23.40;59.40;;;;;;5100432;28;20225;-68
2021/09/04 08:55:13;;;;;;;11.37;9.27;;;23.40;59.40;;;;;;5104678;28;20204;-69
2021/09/04 08:57:44;;;;;;;10.40;9.40;;;23.40;59.40;;;;;;5081170;28;20295;-69
2021/09/04 09:00:37;;;;;;;9.63;8.63;;;23.40;59.40;;;;;;5082070;28;20197;-67
2021/09/04 09:03:18;;;;;;;10.10;9.10;;;23.40;59.40;;;;;;5104725;28;20228;-67
2021/09/04 09:05:52;;;;;;;9.50;8.60;;;23.40;59.40;;;;;;5072368;28;20385;-67
2021/09/04 09:08:43;;;;;;;9.87;8.87;;;23.40;59.40;;;;;;5105517;28;20200;-67
2021/09/04 09:11:12;;;;;;;9.73;8.80;;;23.40;59.40;;;;;;5102509;28;20218;-68
2021/09/04 09:13:47;;;;;;;9.80;8.80;;;23.40;59.40;;;;;;5069245;28;20200;-68
2021/09/04 09:16:31;;;;;;;9.80;8.80;;;23.40;59.40;;;;;;5109013;28;20218;-68
2021/09/04 09:19:04;;;;;;;9.90;8.93;;;23.40;59.40;;;;;;5100082;28;20208;-68
2021/09/04 09:21:42;;;;;;;9.33;8.43;;;23.40;59.40;;;;;;5105037;27;20208;-67
2021/09/04 09:24:18;;;;;;;9.60;8.70;;;23.40;59.40;;;;;;5099514;28;20216;-67
2021/09/04 09:27:00;;;;;;;9.13;8.23;;;23.40;59.40;;;;;;5063765;28;20254;-67
2021/09/04 09:29:35;;;;;;;9.67;8.67;;;23.40;59.40;;;;;;5079119;28;20695;-67
2021/09/04 09:32:19;;;;;;;10.27;9.20;;;23.40;59.40;;;;;;5090018;28;20285;-68
2021/09/04 09:35:09;;;;;;;10.03;9.03;;;23.40;59.40;;;;;;5103636;28;20215;-69
2021/09/04 09:37:50;;;;;;;9.90;8.97;;;23.40;59.40;;;;;;5107207;28;20744;-67
2021/09/04 09:40:25;;;;;;;10.77;9.67;;;23.40;59.30;;;;;;5108326;28;20593;-69
2021/09/04 09:42:57;;;;;;;10.20;9.20;;;23.40;59.30;;;;;;5080256;28;20244;-69
2021/09/04 09:45:49;;;;;;;10.20;9.20;;;23.40;59.40;;;;;;5104381;27;20231;-67
2021/09/04 09:48:30;;;;;;;11.90;10.23;;;23.40;59.30;;;;;;5099054;28;20215;-66
2021/09/04 09:51:05;;;;;;;11.40;9.80;;;23.40;59.50;;;;;;5089441;28;20219;-68
2021/09/04 09:53:41;;;;;;;11.33;10.17;;;23.40;59.50;;;;;;5088631;28;20254;-68
2021/09/04 09:56:14;;;;;;;12.23;9.53;;;23.40;59.50;;;;;;5107885;28;20188;-68
2021/09/04 09:58:43;;;;;;;17.80;10.23;;;23.40;59.50;;;;;;5088356;28;20739;-68
2021/09/04 10:01:13;;;;;;;12.70;10.43;;;23.40;59.40;;;;;;5090027;28;20207;-68
2021/09/04 10:03:44;;;;;;;14.83;10.23;;;23.40;59.40;;;;;;5088760;28;20235;-68
2021/09/04 10:06:15;;;;;;;12.37;9.70;;;23.40;59.30;;;;;;5080816;28;20197;-66
2021/09/04 10:08:51;;;;;;;11.83;9.80;;;23.40;59.30;;;;;;5084531;28;20215;-66
2021/09/04 10:11:19;;;;;;;12.97;9.70;;;23.40;59.30;;;;;;5093304;28;20673;-68
2021/09/04 10:14:02;;;;;;;13.97;9.90;;;23.40;59.30;;;;;;5081952;28;20292;-68
2021/09/04 10:16:33;;;;;;;14.53;9.83;;;23.40;59.20;;;;;;5099136;28;20258;-68
2021/09/04 10:19:08;;;;;;;11.83;10.40;;;23.50;59.30;;;;;;5105259;28;20212;-68
2021/09/04 10:21:57;;;;;;;11.73;10.23;;;23.50;59.30;;;;;;5101725;28;20214;-68
2021/09/04 10:24:53;;;;;;;11.47;10.27;;;23.40;59.20;;;;;;5084210;28;20563;-66
2021/09/04 10:27:42;;;;;;;12.13;9.17;;;23.40;59.10;;;;;;5091416;28;20205;-68
2021/09/04 10:30:33;;;;;;;11.27;10.07;;;23.40;59.20;;;;;;5097758;28;20675;-68
2021/09/04 10:33:23;;;;;;;12.20;10.03;;;23.40;59.10;;;;;;5102903;27;20200;-68
2021/09/04 10:35:58;;;;;;;11.60;10.03;;;23.40;59.10;;;;;;5073197;28;20659;-68
2021/09/04 10:38:34;;;;;;;13.27;10.13;;;23.40;59.10;;;;;;5084259;28;20208;-68
2021/09/04 10:41:26;;;;;;;10.90;9.80;;;23.40;59.10;;;;;;5085669;28;20216;-66
2021/09/04 10:44:04;;;;;;;11.97;10.50;;;23.40;59.10;;;;;;5089738;28;20240;-66
2021/09/04 10:46:34;;;;;;;14.47;10.30;;;23.40;59.10;;;;;;5085785;28;20213;-66
2021/09/04 10:49:05;;;;;;;12.20;9.80;;;23.40;59.10;;;;;;5098360;28;20193;-66
2021/09/04 10:51:57;;;;;;;12.47;10.53;;;23.40;59.10;;;;;;5105056;28;20204;-69
2021/09/04 10:55:01;;;;;;;11.63;10.43;;;23.40;59.10;;;;;;5098315;28;20204;-68
2021/09/04 10:57:55;;;;;;;11.93;10.60;;;23.40;59.10;;;;;;5103595;28;20273;-66
2021/09/04 11:00:29;;;;;;;14.40;11.47;;;23.40;59.10;;;;;;5107671;28;20212;-66
2021/09/04 11:03:06;;;;;;;12.47;11.17;;;23.40;59.10;;;;;;5089699;28;20199;-66
2021/09/04 11:05:57;;;;;;;12.50;11.20;;;23.40;59.10;;;;;;5104429;28;20284;-67
2021/09/04 11:08:38;;;;;;;12.07;10.73;;;23.40;59.00;;;;;;5099860;28;20723;-63
2021/09/04 11:11:23;;;;;;;15.17;13.57;;;23.40;58.90;;;;;;5089587;28;20283;-65
2021/09/04 11:14:04;;;;;;;17.33;15.27;;;23.40;58.20;;;;;;5094517;28;20228;-65
2021/09/04 11:16:45;;;;;;;17.47;15.50;;;23.30;57.60;;;;;;5067789;28;20211;-64
2021/09/04 11:19:32;;;;;;;22.33;16.33;;;23.30;57.70;;;;;;5091406;28;20213;-65
2021/09/04 11:22:14;;;;;;;20.27;17.00;;;23.30;57.40;;;;;;5083285;28;20212;-65
2021/09/04 11:24:49;;;;;;;19.80;16.60;;;23.40;57.60;;;;;;5091212;28;20218;-66
2021/09/04 11:27:21;;;;;;;20.47;16.87;;;23.40;57.50;;;;;;5106093;28;20196;-64
2021/09/04 11:29:55;;;;;;;21.30;17.30;;;23.30;57.30;;;;;;5092540;28;20204;-64
2021/09/04 11:32:32;;;;;;;20.10;17.33;;;23.30;57.10;;;;;;5105170;28;20202;-66
2021/09/04 11:35:18;;;;;;;19.23;17.23;;;23.30;57.10;;;;;;5107404;28;20344;-63
2021/09/04 11:38:06;;;;;;;18.87;16.63;;;23.30;57.20;;;;;;5086644;28;20246;-63
2021/09/04 11:40:35;;;;;;;20.47;15.57;;;23.30;57.00;;;;;;5107204;28;20222;-64
2021/09/04 11:43:09;;;;;;;20.13;16.57;;;23.30;57.10;;;;;;5089552;28;20240;-66
2021/09/04 11:45:39;;;;;;;18.87;15.60;;;23.30;57.00;;;;;;5086098;28;20219;-65
2021/09/04 11:48:13;;;;;;;24.47;16.37;;;23.30;57.50;;;;;;5108647;28;20192;-64
2021/09/04 11:50:45;;;;;;;16.30;14.47;;;23.40;57.60;;;;;;5090599;28;20188;-65
2021/09/04 11:53:17;;;;;;;18.53;15.37;;;23.40;57.70;;;;;;5094415;28;20204;-66
2021/09/04 11:55:47;;;;;;;16.87;15.10;;;23.50;57.70;;;;;;5087210;28;20638;-68
2021/09/04 11:58:15;;;;;;;15.80;14.13;;;23.50;57.60;;;;;;5103134;28;20250;-66
2021/09/04 12:00:46;;;;;;;17.00;14.67;;;23.60;57.60;;;;;;5104305;28;20235;-65
2021/09/04 12:03:27;;;;;;;16.53;14.27;;;23.60;57.50;;;;;;5109457;28;20215;-64
2021/09/04 12:05:58;;;;;;;15.93;14.30;;;23.70;57.50;;;;;;5087832;28;20231;-67
2021/09/04 12:08:30;;;;;;;17.53;14.97;;;23.70;57.40;;;;;;5091512;28;20203;-66
2021/09/04 12:11:07;;;;;;;19.93;14.70;;;23.70;57.20;;;;;;5104032;28;20200;-66
2021/09/04 12:13:39;;;;;;;16.50;14.43;;;23.70;57.20;;;;;;5060411;28;20192;-68
2021/09/04 12:16:08;;;;;;;18.40;14.77;;;23.80;57.10;;;;;;5082844;28;20274;-68
2021/09/04 12:18:46;;;;;;;16.73;14.27;;;23.80;57.10;;;;;;5078940;28;20286;-70
2021/09/04 12:21:31;;;;;;;18.00;16.20;;;23.80;57.10;;;;;;5103592;28;20485;-67
2021/09/04 12:24:02;;;;;;;19.70;16.33;;;23.90;56.90;;;;;;5097981;28;20265;-69
2021/09/04 12:26:34;;;;;;;18.53;15.50;;;23.90;56.50;;;;;;5108175;28;20200;-68
2021/09/04 12:29:10;;;;;;;18.17;16.27;;;23.90;56.50;;;;;;5099989;28;20223;-72
2021/09/04 12:31:47;;;;;;;17.83;16.00;;;23.90;56.40;;;;;;5083242;28;20212;-70
2021/09/04 12:34:23;;;;;;;19.03;16.83;;;23.90;56.50;;;;;;5088780;28;20208;-70
2021/09/04 12:37:27;;;;;;;19.57;17.47;;;23.90;56.60;;;;;;5091310;28;20287;-68
2021/09/04 12:40:11;;;;;;;18.00;16.10;;;23.90;56.40;;;;;;5085704;28;20633;-67
2021/09/04 12:43:03;;;;;;;19.13;17.17;;;23.90;56.40;;;;;;5094104;28;20247;-71
2021/09/04 12:45:33;;;;;;;19.93;17.83;;;23.90;56.30;;;;;;5087337;28;20220;-73
2021/09/04 12:48:07;;;;;;;20.70;18.50;;;23.90;56.30;;;;;;5108271;28;20195;-72
2021/09/04 12:50:40;;;;;;;19.63;17.60;;;23.90;56.40;;;;;;5071923;28;20295;-72
2021/09/04 12:53:11;;;;;;;19.80;17.77;;;23.90;56.50;;;;;;5078507;28;20200;-69
2021/09/04 12:55:51;;;;;;;21.57;18.50;;;23.90;56.40;;;;;;5106524;28;20269;-71
2021/09/04 12:58:20;;;;;;;18.93;17.00;;;23.90;56.40;;;;;;5078938;28;20221;-66
2021/09/04 13:01:07;;;;;;;16.97;15.07;;;23.90;56.60;;;;;;5091364;28;20207;-66
2021/09/04 13:03:39;;;;;;;16.60;14.90;;;23.90;57.20;;;;;;5095942;28;20296;-66
2021/09/04 13:06:15;;;;;;;15.70;14.30;;;23.90;56.70;;;;;;5091562;28;20223;-66
2021/09/04 13:08:46;;;;;;;15.77;13.97;;;23.90;56.70;;;;;;5086978;28;20235;-67